KGVE/GVE METAR and TAF weather

Enter ICAO airport designator
Station Type Date Time Source
KGVE METAR 2020/04/06 11:15 UTC NOAA

KGVE 061115Z AUTO 00000KT 2SM BR OVC090 11/11 A3004 RMK AO1 VIS 3/4V5 T01060106


Station Type Date Time Source
KGVE Decoded METAR 2020/04/06 11:15 UTC NOAA

Station name not available
Apr 06, 2020 - 07:15 AM EDT / 2020.04.06 1115 UTC
Wind: Calm:0
Visibility: 2 mile(s):0
Sky conditions: overcast
Weather: mist
Temperature: 51.1 F (10.6 C)
Dew Point: 51.1 F (10.6 C)
Relative Humidity: 100%
Pressure (altimeter): 30.04 in. Hg (1017 hPa)
ob: KGVE 061115Z AUTO 00000KT 2SM BR OVC090 11/11 A3004 RMK AO1 VIS 3/4V5 T01060106
cycle: 11

Station Type Date Time Source
KGVE TAF UTC NOAA

Error!

Example: see airport list